sensor_id;sensor_type;location;lat;lon;timestamp;P1;durP1;ratioP1;P2;durP2;ratioP2
75787;SDS011;64406;50.024;14.492;2023-08-24T00:00:37;9.63;;;5.13;;
75787;SDS011;64406;50.024;14.492;2023-08-24T00:03:23;6.30;;;5.30;;
75787;SDS011;64406;50.024;14.492;2023-08-24T00:05:49;5.28;;;4.32;;
75787;SDS011;64406;50.024;14.492;2023-08-24T00:08:15;6.45;;;4.70;;
75787;SDS011;64406;50.024;14.492;2023-08-24T00:10:42;4.97;;;4.43;;
75787;SDS011;64406;50.024;14.492;2023-08-24T00:13:09;6.30;;;4.57;;
75787;SDS011;64406;50.024;14.492;2023-08-24T00:15:34;6.43;;;4.95;;
75787;SDS011;64406;50.024;14.492;2023-08-24T00:18:01;8.55;;;4.88;;
75787;SDS011;64406;50.024;14.492;2023-08-24T00:20:27;6.60;;;4.75;;
75787;SDS011;64406;50.024;14.492;2023-08-24T00:22:53;5.32;;;4.05;;
75787;SDS011;64406;50.024;14.492;2023-08-24T00:25:18;8.52;;;5.03;;
75787;SDS011;64406;50.024;14.492;2023-08-24T00:27:44;5.65;;;4.57;;
75787;SDS011;64406;50.024;14.492;2023-08-24T00:30:10;9.55;;;5.32;;
75787;SDS011;64406;50.024;14.492;2023-08-24T00:32:35;5.00;;;4.50;;
75787;SDS011;64406;50.024;14.492;2023-08-24T00:35:02;6.13;;;4.65;;
75787;SDS011;64406;50.024;14.492;2023-08-24T00:37:32;7.35;;;4.43;;
75787;SDS011;64406;50.024;14.492;2023-08-24T00:40:02;8.05;;;4.85;;
75787;SDS011;64406;50.024;14.492;2023-08-24T00:42:39;5.45;;;4.72;;
75787;SDS011;64406;50.024;14.492;2023-08-24T00:45:05;10.02;;;4.97;;
75787;SDS011;64406;50.024;14.492;2023-08-24T00:47:32;9.00;;;5.00;;
75787;SDS011;64406;50.024;14.492;2023-08-24T00:50:02;7.93;;;4.70;;
75787;SDS011;64406;50.024;14.492;2023-08-24T00:52:29;5.95;;;4.72;;
75787;SDS011;64406;50.024;14.492;2023-08-24T00:54:57;7.25;;;5.22;;
75787;SDS011;64406;50.024;14.492;2023-08-24T00:57:25;5.97;;;4.35;;
75787;SDS011;64406;50.024;14.492;2023-08-24T00:59:52;6.18;;;4.60;;
75787;SDS011;64406;50.024;14.492;2023-08-24T01:02:17;7.03;;;4.78;;
75787;SDS011;64406;50.024;14.492;2023-08-24T01:04:43;5.70;;;4.88;;
75787;SDS011;64406;50.024;14.492;2023-08-24T01:07:12;9.77;;;4.30;;
75787;SDS011;64406;50.024;14.492;2023-08-24T01:09:38;6.85;;;5.40;;
75787;SDS011;64406;50.024;14.492;2023-08-24T01:15:02;6.13;;;5.18;;
75787;SDS011;64406;50.024;14.492;2023-08-24T01:17:33;6.13;;;4.97;;
75787;SDS011;64406;50.024;14.492;2023-08-24T01:20:01;7.32;;;4.93;;
75787;SDS011;64406;50.024;14.492;2023-08-24T01:22:37;5.95;;;4.85;;
75787;SDS011;64406;50.024;14.492;2023-08-24T01:27:46;7.78;;;5.45;;
75787;SDS011;64406;50.024;14.492;2023-08-24T01:30:14;7.63;;;5.38;;
75787;SDS011;64406;50.024;14.492;2023-08-24T01:32:41;9.27;;;6.35;;
75787;SDS011;64406;50.024;14.492;2023-08-24T01:35:07;10.60;;;5.90;;
75787;SDS011;64406;50.024;14.492;2023-08-24T01:37:34;8.60;;;6.10;;
75787;SDS011;64406;50.024;14.492;2023-08-24T01:40:07;7.10;;;5.60;;
75787;SDS011;64406;50.024;14.492;2023-08-24T01:42:49;9.35;;;6.13;;
75787;SDS011;64406;50.024;14.492;2023-08-24T01:45:18;9.20;;;5.78;;
75787;SDS011;64406;50.024;14.492;2023-08-24T01:47:45;10.63;;;5.13;;
75787;SDS011;64406;50.024;14.492;2023-08-24T01:50:12;6.00;;;5.38;;
75787;SDS011;64406;50.024;14.492;2023-08-24T01:52:38;10.82;;;6.15;;
75787;SDS011;64406;50.024;14.492;2023-08-24T01:55:05;9.13;;;5.32;;
75787;SDS011;64406;50.024;14.492;2023-08-24T01:57:31;7.50;;;5.53;;
75787;SDS011;64406;50.024;14.492;2023-08-24T01:59:56;6.65;;;5.38;;
75787;SDS011;64406;50.024;14.492;2023-08-24T02:02:23;7.95;;;6.00;;
75787;SDS011;64406;50.024;14.492;2023-08-24T02:04:49;7.07;;;5.75;;
75787;SDS011;64406;50.024;14.492;2023-08-24T02:07:14;9.60;;;6.00;;
75787;SDS011;64406;50.024;14.492;2023-08-24T02:09:40;8.13;;;5.35;;
75787;SDS011;64406;50.024;14.492;2023-08-24T02:12:06;9.60;;;6.13;;
75787;SDS011;64406;50.024;14.492;2023-08-24T02:14:31;10.35;;;6.18;;
75787;SDS011;64406;50.024;14.492;2023-08-24T02:16:57;10.77;;;6.10;;
75787;SDS011;64406;50.024;14.492;2023-08-24T02:19:23;11.25;;;6.15;;
75787;SDS011;64406;50.024;14.492;2023-08-24T02:21:49;7.00;;;5.80;;
75787;SDS011;64406;50.024;14.492;2023-08-24T02:24:14;10.73;;;6.55;;
75787;SDS011;64406;50.024;14.492;2023-08-24T02:26:40;8.63;;;6.53;;
75787;SDS011;64406;50.024;14.492;2023-08-24T02:29:05;6.90;;;6.20;;
75787;SDS011;64406;50.024;14.492;2023-08-24T02:31:31;9.57;;;5.85;;
75787;SDS011;64406;50.024;14.492;2023-08-24T02:33:57;6.05;;;5.45;;
75787;SDS011;64406;50.024;14.492;2023-08-24T02:36:23;10.05;;;5.72;;
75787;SDS011;64406;50.024;14.492;2023-08-24T02:38:48;10.10;;;5.85;;
75787;SDS011;64406;50.024;14.492;2023-08-24T02:41:14;8.00;;;5.78;;
75787;SDS011;64406;50.024;14.492;2023-08-24T02:43:39;7.55;;;5.65;;
75787;SDS011;64406;50.024;14.492;2023-08-24T02:46:06;7.93;;;5.95;;
75787;SDS011;64406;50.024;14.492;2023-08-24T02:48:33;7.30;;;5.55;;
75787;SDS011;64406;50.024;14.492;2023-08-24T02:51:00;11.40;;;5.97;;
75787;SDS011;64406;50.024;14.492;2023-08-24T02:53:28;6.18;;;5.57;;
75787;SDS011;64406;50.024;14.492;2023-08-24T02:55:54;7.82;;;5.82;;
75787;SDS011;64406;50.024;14.492;2023-08-24T02:58:20;8.75;;;6.20;;
75787;SDS011;64406;50.024;14.492;2023-08-24T03:00:46;11.98;;;6.30;;
75787;SDS011;64406;50.024;14.492;2023-08-24T03:03:13;9.57;;;6.00;;
75787;SDS011;64406;50.024;14.492;2023-08-24T03:05:40;7.57;;;5.97;;
75787;SDS011;64406;50.024;14.492;2023-08-24T03:08:06;15.52;;;6.75;;
75787;SDS011;64406;50.024;14.492;2023-08-24T03:10:35;6.63;;;5.85;;
75787;SDS011;64406;50.024;14.492;2023-08-24T03:13:01;8.18;;;5.53;;
75787;SDS011;64406;50.024;14.492;2023-08-24T03:15:28;5.93;;;5.28;;
75787;SDS011;64406;50.024;14.492;2023-08-24T03:17:53;7.03;;;6.32;;
75787;SDS011;64406;50.024;14.492;2023-08-24T03:20:19;9.55;;;6.28;;
75787;SDS011;64406;50.024;14.492;2023-08-24T03:22:45;9.88;;;6.22;;
75787;SDS011;64406;50.024;14.492;2023-08-24T03:25:10;9.45;;;6.03;;
75787;SDS011;64406;50.024;14.492;2023-08-24T03:27:37;13.60;;;7.18;;
75787;SDS011;64406;50.024;14.492;2023-08-24T03:30:03;10.85;;;6.40;;
75787;SDS011;64406;50.024;14.492;2023-08-24T03:32:29;9.85;;;6.78;;
75787;SDS011;64406;50.024;14.492;2023-08-24T03:34:58;10.20;;;6.93;;
75787;SDS011;64406;50.024;14.492;2023-08-24T03:37:24;10.23;;;6.95;;
75787;SDS011;64406;50.024;14.492;2023-08-24T03:39:50;10.25;;;7.20;;
75787;SDS011;64406;50.024;14.492;2023-08-24T03:42:16;12.77;;;6.80;;
75787;SDS011;64406;50.024;14.492;2023-08-24T03:44:42;13.27;;;8.55;;
75787;SDS011;64406;50.024;14.492;2023-08-24T03:47:07;7.63;;;6.43;;
75787;SDS011;64406;50.024;14.492;2023-08-24T03:49:34;10.25;;;7.05;;
75787;SDS011;64406;50.024;14.492;2023-08-24T03:51:59;12.38;;;7.78;;
75787;SDS011;64406;50.024;14.492;2023-08-24T03:54:25;9.65;;;6.88;;
75787;SDS011;64406;50.024;14.492;2023-08-24T03:56:51;11.52;;;6.65;;
75787;SDS011;64406;50.024;14.492;2023-08-24T03:59:17;8.32;;;6.75;;
75787;SDS011;64406;50.024;14.492;2023-08-24T04:01:42;10.88;;;7.18;;
75787;SDS011;64406;50.024;14.492;2023-08-24T04:04:08;9.15;;;6.72;;
75787;SDS011;64406;50.024;14.492;2023-08-24T04:06:33;8.13;;;6.65;;
75787;SDS011;64406;50.024;14.492;2023-08-24T04:08:59;10.80;;;7.28;;
75787;SDS011;64406;50.024;14.492;2023-08-24T04:11:25;10.25;;;7.25;;
75787;SDS011;64406;50.024;14.492;2023-08-24T04:13:50;8.68;;;7.22;;
75787;SDS011;64406;50.024;14.492;2023-08-24T04:16:16;12.38;;;7.25;;
75787;SDS011;64406;50.024;14.492;2023-08-24T04:18:42;11.00;;;8.05;;
75787;SDS011;64406;50.024;14.492;2023-08-24T04:21:07;13.35;;;7.63;;
75787;SDS011;64406;50.024;14.492;2023-08-24T04:23:33;10.60;;;6.85;;
75787;SDS011;64406;50.024;14.492;2023-08-24T04:25:58;8.82;;;6.65;;
75787;SDS011;64406;50.024;14.492;2023-08-24T04:28:24;9.73;;;6.72;;
75787;SDS011;64406;50.024;14.492;2023-08-24T04:30:50;7.05;;;6.25;;
75787;SDS011;64406;50.024;14.492;2023-08-24T04:33:16;7.50;;;6.10;;
75787;SDS011;64406;50.024;14.492;2023-08-24T04:35:42;8.30;;;6.90;;
75787;SDS011;64406;50.024;14.492;2023-08-24T04:38:08;7.50;;;6.32;;
75787;SDS011;64406;50.024;14.492;2023-08-24T04:40:46;9.07;;;6.53;;
75787;SDS011;64406;50.024;14.492;2023-08-24T04:43:13;9.15;;;6.25;;
75787;SDS011;64406;50.024;14.492;2023-08-24T04:45:38;10.18;;;6.78;;
75787;SDS011;64406;50.024;14.492;2023-08-24T04:48:04;10.57;;;7.18;;
75787;SDS011;64406;50.024;14.492;2023-08-24T04:50:30;12.90;;;6.93;;
75787;SDS011;64406;50.024;14.492;2023-08-24T04:52:56;8.35;;;6.90;;
75787;SDS011;64406;50.024;14.492;2023-08-24T04:55:21;10.23;;;6.75;;
75787;SDS011;64406;50.024;14.492;2023-08-24T04:57:48;11.65;;;6.43;;
75787;SDS011;64406;50.024;14.492;2023-08-24T05:00:14;10.35;;;7.03;;
75787;SDS011;64406;50.024;14.492;2023-08-24T05:02:42;9.77;;;6.32;;
75787;SDS011;64406;50.024;14.492;2023-08-24T05:05:08;13.20;;;7.03;;
75787;SDS011;64406;50.024;14.492;2023-08-24T05:07:39;8.73;;;6.90;;
75787;SDS011;64406;50.024;14.492;2023-08-24T05:10:05;7.90;;;6.88;;
75787;SDS011;64406;50.024;14.492;2023-08-24T05:12:32;10.57;;;7.72;;
75787;SDS011;64406;50.024;14.492;2023-08-24T05:14:59;11.57;;;7.00;;
75787;SDS011;64406;50.024;14.492;2023-08-24T05:17:25;8.55;;;7.35;;
75787;SDS011;64406;50.024;14.492;2023-08-24T05:19:53;9.32;;;6.85;;
75787;SDS011;64406;50.024;14.492;2023-08-24T05:22:20;9.73;;;6.78;;
75787;SDS011;64406;50.024;14.492;2023-08-24T05:24:46;12.75;;;6.90;;
75787;SDS011;64406;50.024;14.492;2023-08-24T05:27:12;9.10;;;6.28;;
75787;SDS011;64406;50.024;14.492;2023-08-24T05:29:37;11.93;;;7.25;;
75787;SDS011;64406;50.024;14.492;2023-08-24T05:32:03;14.63;;;6.45;;
75787;SDS011;64406;50.024;14.492;2023-08-24T05:34:29;10.45;;;7.10;;
75787;SDS011;64406;50.024;14.492;2023-08-24T05:36:55;15.10;;;6.90;;
75787;SDS011;64406;50.024;14.492;2023-08-24T05:39:20;8.00;;;6.32;;
75787;SDS011;64406;50.024;14.492;2023-08-24T05:41:46;9.93;;;6.13;;
75787;SDS011;64406;50.024;14.492;2023-08-24T05:44:16;9.23;;;6.50;;
75787;SDS011;64406;50.024;14.492;2023-08-24T05:46:42;9.15;;;7.15;;
75787;SDS011;64406;50.024;14.492;2023-08-24T05:49:08;8.80;;;7.18;;
75787;SDS011;64406;50.024;14.492;2023-08-24T05:51:34;8.45;;;6.75;;
75787;SDS011;64406;50.024;14.492;2023-08-24T05:53:59;10.48;;;7.03;;
75787;SDS011;64406;50.024;14.492;2023-08-24T05:56:26;9.15;;;6.75;;
75787;SDS011;64406;50.024;14.492;2023-08-24T05:58:51;9.00;;;5.93;;
75787;SDS011;64406;50.024;14.492;2023-08-24T06:01:17;10.77;;;6.82;;
75787;SDS011;64406;50.024;14.492;2023-08-24T06:03:42;12.95;;;6.43;;
75787;SDS011;64406;50.024;14.492;2023-08-24T06:06:09;8.02;;;6.70;;
75787;SDS011;64406;50.024;14.492;2023-08-24T06:08:35;10.15;;;7.18;;
75787;SDS011;64406;50.024;14.492;2023-08-24T06:11:00;8.85;;;6.72;;
75787;SDS011;64406;50.024;14.492;2023-08-24T06:13:27;8.65;;;6.85;;
75787;SDS011;64406;50.024;14.492;2023-08-24T06:15:53;10.45;;;7.65;;
75787;SDS011;64406;50.024;14.492;2023-08-24T06:18:19;8.82;;;5.80;;
75787;SDS011;64406;50.024;14.492;2023-08-24T06:20:45;9.00;;;6.45;;
75787;SDS011;64406;50.024;14.492;2023-08-24T06:23:14;9.68;;;6.65;;
75787;SDS011;64406;50.024;14.492;2023-08-24T06:25:41;8.70;;;6.70;;
75787;SDS011;64406;50.024;14.492;2023-08-24T06:28:07;8.05;;;6.60;;
75787;SDS011;64406;50.024;14.492;2023-08-24T06:30:36;9.75;;;7.35;;
75787;SDS011;64406;50.024;14.492;2023-08-24T06:33:05;7.10;;;6.40;;
75787;SDS011;64406;50.024;14.492;2023-08-24T06:35:35;8.43;;;7.20;;
75787;SDS011;64406;50.024;14.492;2023-08-24T06:38:01;8.10;;;7.10;;
75787;SDS011;64406;50.024;14.492;2023-08-24T06:40:28;8.13;;;6.68;;
75787;SDS011;64406;50.024;14.492;2023-08-24T06:42:54;10.90;;;6.63;;
75787;SDS011;64406;50.024;14.492;2023-08-24T06:45:20;8.00;;;6.20;;
75787;SDS011;64406;50.024;14.492;2023-08-24T06:47:46;12.93;;;7.50;;
75787;SDS011;64406;50.024;14.492;2023-08-24T06:50:11;14.95;;;7.63;;
75787;SDS011;64406;50.024;14.492;2023-08-24T06:52:37;8.30;;;6.70;;
75787;SDS011;64406;50.024;14.492;2023-08-24T06:55:03;8.75;;;7.00;;
75787;SDS011;64406;50.024;14.492;2023-08-24T06:57:30;10.52;;;7.60;;
75787;SDS011;64406;50.024;14.492;2023-08-24T06:59:55;13.15;;;6.35;;
75787;SDS011;64406;50.024;14.492;2023-08-24T07:02:21;8.23;;;6.53;;
75787;SDS011;64406;50.024;14.492;2023-08-24T07:04:47;11.63;;;6.47;;
75787;SDS011;64406;50.024;14.492;2023-08-24T07:07:13;9.95;;;6.32;;
75787;SDS011;64406;50.024;14.492;2023-08-24T07:09:39;10.43;;;5.72;;
75787;SDS011;64406;50.024;14.492;2023-08-24T07:12:05;7.43;;;6.53;;
75787;SDS011;64406;50.024;14.492;2023-08-24T07:14:32;8.65;;;6.32;;
75787;SDS011;64406;50.024;14.492;2023-08-24T07:16:58;13.10;;;6.03;;
75787;SDS011;64406;50.024;14.492;2023-08-24T07:19:24;7.10;;;5.88;;
75787;SDS011;64406;50.024;14.492;2023-08-24T07:21:50;8.68;;;5.43;;
75787;SDS011;64406;50.024;14.492;2023-08-24T07:24:16;7.63;;;5.68;;
75787;SDS011;64406;50.024;14.492;2023-08-24T07:26:44;8.02;;;5.78;;
75787;SDS011;64406;50.024;14.492;2023-08-24T07:29:10;7.85;;;5.50;;
75787;SDS011;64406;50.024;14.492;2023-08-24T07:31:36;10.32;;;5.95;;
75787;SDS011;64406;50.024;14.492;2023-08-24T07:34:02;9.07;;;5.72;;
75787;SDS011;64406;50.024;14.492;2023-08-24T07:36:29;8.25;;;5.22;;
75787;SDS011;64406;50.024;14.492;2023-08-24T07:38:55;8.65;;;5.38;;
75787;SDS011;64406;50.024;14.492;2023-08-24T07:41:21;8.38;;;5.03;;
75787;SDS011;64406;50.024;14.492;2023-08-24T07:43:47;10.15;;;5.65;;
75787;SDS011;64406;50.024;14.492;2023-08-24T07:46:13;7.90;;;5.05;;
75787;SDS011;64406;50.024;14.492;2023-08-24T07:48:39;8.40;;;5.65;;
75787;SDS011;64406;50.024;14.492;2023-08-24T07:51:04;9.82;;;5.85;;
75787;SDS011;64406;50.024;14.492;2023-08-24T07:53:30;8.20;;;5.68;;
75787;SDS011;64406;50.024;14.492;2023-08-24T07:55:58;8.70;;;5.90;;
75787;SDS011;64406;50.024;14.492;2023-08-24T07:58:26;13.13;;;6.35;;
75787;SDS011;64406;50.024;14.492;2023-08-24T08:00:52;8.30;;;4.90;;
75787;SDS011;64406;50.024;14.492;2023-08-24T08:03:18;7.95;;;5.10;;
75787;SDS011;64406;50.024;14.492;2023-08-24T08:05:45;12.98;;;5.82;;
75787;SDS011;64406;50.024;14.492;2023-08-24T08:08:12;12.23;;;5.60;;
75787;SDS011;64406;50.024;14.492;2023-08-24T08:10:39;7.60;;;5.10;;
75787;SDS011;64406;50.024;14.492;2023-08-24T08:13:06;7.07;;;5.00;;
75787;SDS011;64406;50.024;14.492;2023-08-24T08:15:33;6.13;;;4.72;;
75787;SDS011;64406;50.024;14.492;2023-08-24T08:17:59;9.70;;;4.53;;
75787;SDS011;64406;50.024;14.492;2023-08-24T08:20:24;8.82;;;4.80;;
75787;SDS011;64406;50.024;14.492;2023-08-24T08:22:50;8.55;;;5.15;;
75787;SDS011;64406;50.024;14.492;2023-08-24T08:25:16;6.25;;;4.80;;
75787;SDS011;64406;50.024;14.492;2023-08-24T08:27:43;7.55;;;4.45;;
75787;SDS011;64406;50.024;14.492;2023-08-24T08:30:09;8.35;;;4.53;;
75787;SDS011;64406;50.024;14.492;2023-08-24T08:32:35;7.07;;;5.00;;
75787;SDS011;64406;50.024;14.492;2023-08-24T08:35:01;9.15;;;4.72;;
75787;SDS011;64406;50.024;14.492;2023-08-24T08:37:32;6.70;;;4.43;;
75787;SDS011;64406;50.024;14.492;2023-08-24T08:39:57;8.55;;;4.22;;
75787;SDS011;64406;50.024;14.492;2023-08-24T08:42:23;6.00;;;3.22;;
75787;SDS011;64406;50.024;14.492;2023-08-24T08:44:49;9.30;;;3.28;;
75787;SDS011;64406;50.024;14.492;2023-08-24T08:47:15;5.18;;;3.33;;
75787;SDS011;64406;50.024;14.492;2023-08-24T08:49:43;5.65;;;3.25;;
75787;SDS011;64406;50.024;14.492;2023-08-24T08:52:10;5.47;;;3.80;;
75787;SDS011;64406;50.024;14.492;2023-08-24T08:54:36;7.75;;;2.90;;
75787;SDS011;64406;50.024;14.492;2023-08-24T08:57:02;4.95;;;2.88;;
75787;SDS011;64406;50.024;14.492;2023-08-24T08:59:29;7.38;;;3.30;;
75787;SDS011;64406;50.024;14.492;2023-08-24T09:01:56;3.85;;;3.35;;
75787;SDS011;64406;50.024;14.492;2023-08-24T09:04:26;4.85;;;3.53;;
75787;SDS011;64406;50.024;14.492;2023-08-24T09:06:55;8.00;;;3.42;;
75787;SDS011;64406;50.024;14.492;2023-08-24T09:09:26;7.47;;;3.55;;
75787;SDS011;64406;50.024;14.492;2023-08-24T09:11:52;5.95;;;4.20;;
75787;SDS011;64406;50.024;14.492;2023-08-24T09:14:18;3.97;;;3.20;;
75787;SDS011;64406;50.024;14.492;2023-08-24T09:16:44;9.57;;;4.25;;
75787;SDS011;64406;50.024;14.492;2023-08-24T09:19:13;4.82;;;3.50;;
75787;SDS011;64406;50.024;14.492;2023-08-24T09:21:39;5.57;;;3.28;;
75787;SDS011;64406;50.024;14.492;2023-08-24T09:24:06;5.97;;;3.83;;
75787;SDS011;64406;50.024;14.492;2023-08-24T09:26:34;4.70;;;3.47;;
75787;SDS011;64406;50.024;14.492;2023-08-24T09:29:23;5.47;;;3.38;;
75787;SDS011;64406;50.024;14.492;2023-08-24T09:31:49;5.35;;;3.92;;
75787;SDS011;64406;50.024;14.492;2023-08-24T09:34:15;7.35;;;3.63;;
75787;SDS011;64406;50.024;14.492;2023-08-24T09:36:46;6.00;;;3.80;;
75787;SDS011;64406;50.024;14.492;2023-08-24T09:39:12;5.22;;;4.05;;
75787;SDS011;64406;50.024;14.492;2023-08-24T09:41:44;7.05;;;4.13;;
75787;SDS011;64406;50.024;14.492;2023-08-24T09:44:14;6.25;;;4.00;;
75787;SDS011;64406;50.024;14.492;2023-08-24T09:46:40;7.03;;;4.13;;
75787;SDS011;64406;50.024;14.492;2023-08-24T09:49:06;4.45;;;3.53;;
75787;SDS011;64406;50.024;14.492;2023-08-24T09:51:35;5.45;;;3.58;;
75787;SDS011;64406;50.024;14.492;2023-08-24T09:54:04;5.75;;;3.88;;
75787;SDS011;64406;50.024;14.492;2023-08-24T09:56:34;4.85;;;3.60;;
75787;SDS011;64406;50.024;14.492;2023-08-24T09:59:14;6.97;;;4.13;;
75787;SDS011;64406;50.024;14.492;2023-08-24T10:01:44;5.18;;;3.80;;
75787;SDS011;64406;50.024;14.492;2023-08-24T10:04:13;6.18;;;3.85;;
75787;SDS011;64406;50.024;14.492;2023-08-24T10:06:40;4.57;;;3.50;;
75787;SDS011;64406;50.024;14.492;2023-08-24T10:09:08;5.65;;;3.97;;
75787;SDS011;64406;50.024;14.492;2023-08-24T10:11:42;7.00;;;4.03;;
75787;SDS011;64406;50.024;14.492;2023-08-24T10:14:50;6.85;;;4.05;;
75787;SDS011;64406;50.024;14.492;2023-08-24T10:17:06;7.00;;;3.88;;
75787;SDS011;64406;50.024;14.492;2023-08-24T10:19:33;4.35;;;3.63;;
75787;SDS011;64406;50.024;14.492;2023-08-24T10:22:00;4.85;;;3.97;;
75787;SDS011;64406;50.024;14.492;2023-08-24T10:24:27;7.18;;;4.05;;
75787;SDS011;64406;50.024;14.492;2023-08-24T10:26:53;6.53;;;3.80;;
75787;SDS011;64406;50.024;14.492;2023-08-24T10:29:20;4.53;;;3.63;;
75787;SDS011;64406;50.024;14.492;2023-08-24T10:31:46;8.10;;;4.38;;
75787;SDS011;64406;50.024;14.492;2023-08-24T10:34:14;5.95;;;3.60;;
75787;SDS011;64406;50.024;14.492;2023-08-24T10:36:40;6.95;;;3.63;;
75787;SDS011;64406;50.024;14.492;2023-08-24T10:39:06;4.85;;;3.65;;
75787;SDS011;64406;50.024;14.492;2023-08-24T10:41:47;9.05;;;3.38;;
75787;SDS011;64406;50.024;14.492;2023-08-24T10:44:21;5.07;;;3.92;;
75787;SDS011;64406;50.024;14.492;2023-08-24T10:49:37;8.65;;;4.05;;
75787;SDS011;64406;50.024;14.492;2023-08-24T10:52:19;7.40;;;3.70;;
75787;SDS011;64406;50.024;14.492;2023-08-24T10:54:47;7.25;;;3.80;;
75787;SDS011;64406;50.024;14.492;2023-08-24T10:57:18;13.27;;;4.82;;
75787;SDS011;64406;50.024;14.492;2023-08-24T11:00:04;4.63;;;3.80;;
75787;SDS011;64406;50.024;14.492;2023-08-24T11:05:19;5.20;;;3.53;;
75787;SDS011;64406;50.024;14.492;2023-08-24T11:07:53;4.68;;;3.72;;
75787;SDS011;64406;50.024;14.492;2023-08-24T11:10:21;4.60;;;3.78;;
75787;SDS011;64406;50.024;14.492;2023-08-24T11:13:06;6.40;;;3.95;;
75787;SDS011;64406;50.024;14.492;2023-08-24T11:15:34;4.25;;;3.10;;
75787;SDS011;64406;50.024;14.492;2023-08-24T11:20:47;6.03;;;3.30;;
75787;SDS011;64406;50.024;14.492;2023-08-24T11:23:17;4.63;;;3.90;;
75787;SDS011;64406;50.024;14.492;2023-08-24T11:25:44;4.63;;;3.78;;
75787;SDS011;64406;50.024;14.492;2023-08-24T11:28:11;5.38;;;3.80;;
75787;SDS011;64406;50.024;14.492;2023-08-24T11:30:41;7.97;;;3.55;;
75787;SDS011;64406;50.024;14.492;2023-08-24T11:33:08;4.07;;;3.67;;
75787;SDS011;64406;50.024;14.492;2023-08-24T11:35:36;7.53;;;3.88;;
75787;SDS011;64406;50.024;14.492;2023-08-24T11:38:02;5.20;;;3.90;;
75787;SDS011;64406;50.024;14.492;2023-08-24T11:40:30;4.47;;;3.58;;
75787;SDS011;64406;50.024;14.492;2023-08-24T11:42:56;5.32;;;3.50;;
75787;SDS011;64406;50.024;14.492;2023-08-24T11:45:22;8.20;;;3.50;;
75787;SDS011;64406;50.024;14.492;2023-08-24T11:47:49;7.15;;;3.45;;
75787;SDS011;64406;50.024;14.492;2023-08-24T11:50:16;3.85;;;3.45;;
75787;SDS011;64406;50.024;14.492;2023-08-24T11:52:42;3.95;;;3.25;;
75787;SDS011;64406;50.024;14.492;2023-08-24T11:55:08;6.68;;;3.30;;
75787;SDS011;64406;50.024;14.492;2023-08-24T11:57:34;3.80;;;3.40;;
75787;SDS011;64406;50.024;14.492;2023-08-24T12:00:04;10.10;;;4.13;;
75787;SDS011;64406;50.024;14.492;2023-08-24T12:02:31;4.25;;;3.00;;
75787;SDS011;64406;50.024;14.492;2023-08-24T12:04:57;4.90;;;3.17;;
75787;SDS011;64406;50.024;14.492;2023-08-24T12:07:24;6.05;;;4.07;;
75787;SDS011;64406;50.024;14.492;2023-08-24T12:09:51;5.47;;;3.85;;
75787;SDS011;64406;50.024;14.492;2023-08-24T12:12:19;7.13;;;3.50;;
75787;SDS011;64406;50.024;14.492;2023-08-24T12:14:46;6.72;;;3.90;;
75787;SDS011;64406;50.024;14.492;2023-08-24T12:17:13;5.70;;;4.13;;
75787;SDS011;64406;50.024;14.492;2023-08-24T12:19:43;4.95;;;3.80;;
75787;SDS011;64406;50.024;14.492;2023-08-24T12:22:16;4.32;;;3.35;;
75787;SDS011;64406;50.024;14.492;2023-08-24T12:24:45;4.60;;;3.60;;
75787;SDS011;64406;50.024;14.492;2023-08-24T12:27:24;6.22;;;3.85;;
75787;SDS011;64406;50.024;14.492;2023-08-24T12:29:52;5.65;;;3.50;;
75787;SDS011;64406;50.024;14.492;2023-08-24T12:32:18;4.75;;;3.63;;
75787;SDS011;64406;50.024;14.492;2023-08-24T12:34:47;6.53;;;3.33;;
75787;SDS011;64406;50.024;14.492;2023-08-24T12:37:13;3.90;;;3.55;;
75787;SDS011;64406;50.024;14.492;2023-08-24T12:39:39;6.10;;;3.67;;
75787;SDS011;64406;50.024;14.492;2023-08-24T12:42:05;4.25;;;3.72;;
75787;SDS011;64406;50.024;14.492;2023-08-24T12:44:31;4.80;;;3.83;;
75787;SDS011;64406;50.024;14.492;2023-08-24T12:46:58;4.63;;;3.47;;
75787;SDS011;64406;50.024;14.492;2023-08-24T12:49:24;4.00;;;3.10;;
75787;SDS011;64406;50.024;14.492;2023-08-24T12:51:49;6.80;;;3.03;;
75787;SDS011;64406;50.024;14.492;2023-08-24T12:54:15;3.67;;;3.28;;
75787;SDS011;64406;50.024;14.492;2023-08-24T12:56:41;5.07;;;3.30;;
75787;SDS011;64406;50.024;14.492;2023-08-24T12:59:07;4.45;;;3.10;;
75787;SDS011;64406;50.024;14.492;2023-08-24T13:01:33;5.43;;;3.17;;
75787;SDS011;64406;50.024;14.492;2023-08-24T13:03:58;4.07;;;3.22;;
75787;SDS011;64406;50.024;14.492;2023-08-24T13:06:24;4.65;;;3.33;;
75787;SDS011;64406;50.024;14.492;2023-08-24T13:08:50;5.47;;;3.42;;
75787;SDS011;64406;50.024;14.492;2023-08-24T13:11:16;6.55;;;3.10;;
75787;SDS011;64406;50.024;14.492;2023-08-24T13:13:41;4.38;;;3.45;;
75787;SDS011;64406;50.024;14.492;2023-08-24T13:16:07;3.75;;;3.10;;
75787;SDS011;64406;50.024;14.492;2023-08-24T13:18:33;4.28;;;3.05;;
75787;SDS011;64406;50.024;14.492;2023-08-24T13:20:58;4.10;;;3.00;;
75787;SDS011;64406;50.024;14.492;2023-08-24T13:23:24;4.00;;;3.10;;
75787;SDS011;64406;50.024;14.492;2023-08-24T13:25:50;3.10;;;2.80;;
75787;SDS011;64406;50.024;14.492;2023-08-24T13:28:16;4.28;;;3.28;;
75787;SDS011;64406;50.024;14.492;2023-08-24T13:30:42;3.03;;;2.72;;
75787;SDS011;64406;50.024;14.492;2023-08-24T13:33:08;5.40;;;3.38;;
75787;SDS011;64406;50.024;14.492;2023-08-24T13:35:34;4.93;;;3.60;;
75787;SDS011;64406;50.024;14.492;2023-08-24T13:37:59;7.50;;;3.10;;
75787;SDS011;64406;50.024;14.492;2023-08-24T13:40:25;4.70;;;3.40;;
75787;SDS011;64406;50.024;14.492;2023-08-24T13:42:51;3.20;;;3.00;;
75787;SDS011;64406;50.024;14.492;2023-08-24T13:45:16;5.07;;;3.15;;
75787;SDS011;64406;50.024;14.492;2023-08-24T13:47:42;6.22;;;3.50;;
75787;SDS011;64406;50.024;14.492;2023-08-24T13:50:08;3.63;;;3.20;;
75787;SDS011;64406;50.024;14.492;2023-08-24T13:52:33;6.63;;;3.47;;
75787;SDS011;64406;50.024;14.492;2023-08-24T13:54:59;3.63;;;3.25;;
75787;SDS011;64406;50.024;14.492;2023-08-24T13:57:28;3.55;;;3.25;;
75787;SDS011;64406;50.024;14.492;2023-08-24T13:59:53;5.03;;;3.38;;
75787;SDS011;64406;50.024;14.492;2023-08-24T14:02:19;3.85;;;3.42;;
75787;SDS011;64406;50.024;14.492;2023-08-24T14:04:45;4.07;;;3.20;;
75787;SDS011;64406;50.024;14.492;2023-08-24T14:07:11;3.53;;;3.20;;
75787;SDS011;64406;50.024;14.492;2023-08-24T14:09:37;3.75;;;2.85;;
75787;SDS011;64406;50.024;14.492;2023-08-24T14:12:02;4.93;;;3.22;;
75787;SDS011;64406;50.024;14.492;2023-08-24T14:14:28;5.15;;;3.20;;
75787;SDS011;64406;50.024;14.492;2023-08-24T14:16:54;4.80;;;3.38;;
75787;SDS011;64406;50.024;14.492;2023-08-24T14:19:21;3.20;;;2.90;;
75787;SDS011;64406;50.024;14.492;2023-08-24T14:21:47;3.67;;;3.30;;
75787;SDS011;64406;50.024;14.492;2023-08-24T14:24:13;3.85;;;3.05;;
75787;SDS011;64406;50.024;14.492;2023-08-24T14:26:38;3.70;;;3.15;;
75787;SDS011;64406;50.024;14.492;2023-08-24T14:29:10;4.00;;;2.90;;
75787;SDS011;64406;50.024;14.492;2023-08-24T14:31:36;3.58;;;3.05;;
75787;SDS011;64406;50.024;14.492;2023-08-24T14:34:03;3.13;;;2.75;;
75787;SDS011;64406;50.024;14.492;2023-08-24T14:36:28;4.82;;;2.78;;
75787;SDS011;64406;50.024;14.492;2023-08-24T14:38:54;3.88;;;3.38;;
75787;SDS011;64406;50.024;14.492;2023-08-24T14:41:20;2.78;;;2.38;;
75787;SDS011;64406;50.024;14.492;2023-08-24T14:43:46;3.83;;;2.75;;
75787;SDS011;64406;50.024;14.492;2023-08-24T14:46:13;4.20;;;3.08;;